Search flights

Sestri Airport, Genoa (LIMJ)

Airport Weather & NOTAM's

METAR for:LIMJ (Genoa/Colombo Arpt, GE, IT)
Text:LIMJ 172250Z 09004KT 040V120 CAVOK 14/03 Q1006
Conditions at:2250 UTC 17 Apr 2024
Temperature: 14.0°C ( 57°F)
Dewpoint: 3.0°C ( 37°F) [RH = 47%]
Pressure (altimeter):29.70 inches Hg (1006.0 mb)
Winds:from the E (90 degrees) at 5 MPH (4 knots; 2.1 m/s)
Visibility:6 or more sm (10+ km)
Ceiling:ceiling and visibility are OK
Clouds:unknown
TAF for:LIMJ (Genoa/Colombo Arpt, GE, IT) issued at 1700 UTC 17 Apr 2024
Text:TAF LIMJ 171700Z 1718/1818 24015KT 9999 SCT060
Forecast period:1800 UTC 17 April 2024 to 1800 UTC 18 April 2024
Forecast type:FROM: standard forecast or significant change
Winds:from the WSW (240 degrees) at 17 MPH (15 knots; 7.7 m/s)
Visibility:6 or more sm (10+ km)
Ceiling:at least 12,000 feet AGL
Clouds:scattered clouds at 6000 feet AGL
Text:BECMG 1718/1720 02016KT
Forecast period:1800 UTC 17 April 2024 to 1800 UTC 18 April 2024
Forecast type:BECOMING: Conditions expected to become as follows by 2000 UTC 17 April 2024
Winds:from the NNE (20 degrees) at 18 MPH (16 knots; 8.2 m/s)
Visibility:6 or more sm (10+ km)
Ceiling:at least 12,000 feet AGL
Clouds:scattered clouds at 6000 feet AGL
Text:TEMPO 1812/1817 4000 TSRA
Forecast period:1200 to 1700 UTC 18 April 2024
Forecast type:TEMPORARY: The following changes expected for less than half the time period
Visibility:2.49 sm (4.01 km)
Weather:TSRA (rain associated with thunderstorm(s))

Live Departures & Arrivals

There are currently no arrivals or departures for this airport.

Departures History (last 12 months)

Flight No. Dest. Aircraft Date
SIC0172 LFML FFX Vision... 2024-04-02 19:08:13
SIC0172 LFMN Pilatus PC... 2024-04-02 16:15:40
SPP-TR09 LFMN PMDG 737-8... 2024-03-28 20:17:20
SIC0038 LIRL ToLissA319... 2024-03-19 12:43:28
SIC0904 LIRL CRJ700 AIR... 2024-03-06 11:54:59
N172SB LFMN Cessna 172... 2024-02-13 11:12:42
SPP-TR09 LFMN Airbus A32... 2024-01-28 13:01:07
SIC0868 LIRL King Air 3... 2024-01-15 11:23:28
SIC0090 LFML Fly The Ma... 2024-01-14 17:38:24
SICBM5608 LIEE FenixA320... 2023-12-21 17:11:13
SIC0172 LEPA BS Analogu... 2023-12-10 10:34:57
LEG-13 HUB LICC LEBL A20N 2023-11-26 20:00:00
SIC0006 LIMP Cessna 172... 2023-11-24 14:21:24
SPP-TR09 LFMN PMDG 737-8... 2023-11-17 15:11:31
SPP-TR09 LFMN FenixA320... 2023-11-04 06:33:05
SIC0150 LIMG Cessna 172... 2023-11-04 19:51:07
SIC0133 LIRF Airbus A32... 2023-10-28 19:32:31
SPP-TR09 LFMN Airbus A32... 2023-10-24 17:16:17
SPP-TR09 LFMN PMDG 737-8... 2023-10-16 20:44:38
SIC0701 LFMN PMDG 737-8... 2023-10-16 21:02:40
SPP-TR09 LFMN Airbus A32... 2023-10-15 16:44:54
SIC0118 LICC FenixA320... 2023-10-14 13:05:57
SIC0982 LFLL FenixA320_... 2023-10-08 20:00:52
BM1635 LIRF PMDG 737-7... 2023-10-04 07:10:18
SPP-TR09 LFMN PMDG 737-8... 2023-09-27 09:52:34
SIC0868 LFMN FenixA320... 2023-09-27 12:00:26
SPP-TR09 LFMN PMDG 737-8... 2023-09-24 17:04:59
SIC0057 LIMP Cessna 172... 2023-09-13 11:13:54
BM5608 LIEE FFX Vision... 2023-08-28 08:18:41
BM5632 LFPO FenixA320... 2023-08-20 07:54:09
FCA2910 LICJ PMDG 737-8... 2023-07-17 11:18:57
BMV0982 LIMP Carenado C... 2023-07-07 19:06:44
SIC0129 LICJ PMDG 737-8... 2023-06-28 19:50:01
SIC2679 LICT FenixA320... 2023-06-24 19:11:04
BMV005 LIMF C152 JP AI... 2023-06-24 15:16:36
1 LICT Cessna Lon... 2023-06-24 19:44:57
SIC0057 LIBP Airbus A32... 2023-05-20 16:55:58
58 LIMJ Cessna 152... 2023-04-29 12:36:51
58 LILQ Cessna 152... 2023-04-27 12:21:07
SIC44EX LICA PMDG 737-8... 2023-04-19 20:20:43
SIC0649 LIMP Cessna 208... 2023-04-18 06:45:42

Arrivals History (last 12 months)

Flight No. Origin Aircraft Date
SIC0126 LICJ PMDG 737-9... 2024-04-03 11:14:50
SIC0027 LICJ FenixA320... 2024-04-02 10:32:09
SPP-TR08 LIPO PMDG 737-8... 2024-03-27 21:24:19
SIC0038 LIPH Airbus A32... 2024-03-19 09:23:26
SIC0904 LIPH Fenix A320... 2024-03-03 16:13:08
BM119 LIEE PMDG 737-8... 2024-02-12 12:39:56
SIC1025 LIPR Cessna 152... 2024-02-07 23:21:45
SIC-0133 LIPO Airbus A32... 2024-01-23 14:16:28
SICBM1630 LIRF FenixA320... 2023-12-19 19:02:57
SIC0701 LICJ PMDG 737-8... 2023-12-15 01:47:44
LIMG LIEE BS Analogu... 2023-12-04 20:45:52
SIC2679 LIRQ Airbus A32... 2023-11-26 15:47:08
SIC0133 LICC Airbus A32... 2023-11-26 15:30:28
SIC0126 LICJ PMDG 737-9... 2023-11-20 21:36:47
SPP-TR08 LIPO NA 2023-11-16 16:57:36
SIC0006 LIMA C172 2023-11-14 13:25:00
SIC0701 LIRF B738 2023-11-05 17:17:00
SPP-TR08 LIPO FenixA320... 2023-11-03 14:39:11
SIC0748 LIEE PMDG 737-8... 2023-10-30 22:50:56
SIC0133 LIML PC12 CHRON... 2023-10-27 19:40:03
SPP-TR08 LIPO Airbus A32... 2023-10-24 04:39:29
SPP-TR08 LIPO Airbus A32... 2023-10-15 16:16:35
SPP-TR08 LIPO PMDG 737-8... 2023-10-13 15:25:11
SIC0701 LIPO PMDG 737-8... 2023-10-13 15:30:33
BMI0982 LIRF FenixA320_... 2023-10-08 19:46:33
BM1370 LICC PMDG 737-7... 2023-10-04 06:03:29
SIC0103 LIRF PMDG 737-7... 2023-10-02 21:04:26
BM119 LIRF PMDG 737-8... 2023-10-02 20:28:12
SPP-TR08 LIPO PMDG 737-8... 2023-09-27 09:34:10
SIC0868 LIPO FenixA320... 2023-09-27 07:32:54
SIC0057 LIMA Carenado A... 2023-08-31 12:21:30
BMV553 LIMG Cessna 172... 2023-08-02 07:48:22
SICBM1630 LIRF FenixA320... 2023-08-01 09:00:52
BM0172 LIRJ Just Fligh... 2023-07-24 08:26:09
SIC0038 LICJ PMDG 737-8... 2023-07-17 10:41:55
BMV0982 LIMA Carenado C... 2023-07-07 12:33:59
BM1090 LICJ FenixA320... 2023-07-04 09:44:39
BM3022 LIRN PMDG 737-8... 2023-06-30 09:00:36
SIC2679 LIPE Cessna 208... 2023-06-24 17:26:32
SIC0129 LIMW DA40-NG As... 2023-06-22 20:34:03
BMV003 LIPE Cessna 208... 2023-06-22 21:19:53
SIC1117 LICJ PMDG 737-8... 2023-05-23 20:49:27
58 LIMG Cessna 152... 2023-05-16 18:51:53
BM1630 LIRF 320_JARDes... 2023-05-07 16:28:23
58 LIMJ Cessna 152... 2023-04-29 12:59:35
VFR000 LIMF PAQ28R 2023-04-20 21:13:00
SIC0998 LIMF C172 2023-04-19 21:53:00
SIC0904 LIMF Carenado P... 2023-04-19 22:24:50
SIC0701 LIMF C172 2023-04-19 21:53:00
BMV0104 LIMF Cessna Sky... 2023-04-19 21:43:50
BMV0023 LIMF Cessna 152... 2023-04-19 21:44:46

Runway Information (Airport elevation: 10ft)

Runway 10 Length 9,580ft Width 143ft Elevation 10ft Surface Asphalt Heading 105
Runway 28 Length 9,580ft Width 143ft Elevation 10ft Surface Asphalt Heading 285

Airport Frequencies

Type APP/DEP Frequency 119.600 Mhz
Type ATIS Frequency 122.830 Mhz
Type Tower Frequency 118.600 Mhz
Type APP/DEP Frequency 119.600 Mhz
Type Tower Frequency 118.600 Mhz

Airport Navaids

Type VOR-DME Ident GEN Frequency 112800 Khz
Type NDB Ident GEN Frequency 318 Khz
Type VOR-DME Ident SES Frequency 108600 Khz